Time;durP1;ratioP1;P1;durP2;ratioP2;P2;SDS_P1;SDS_P2;PMS_P1;PMS_P2;Temp;Humidity;BMP_temperature;BMP_pressure;BME280_temperature;BME280_humidity;BME280_pressure;Samples;Min_cycle;Max_cycle;Signal;HPM_P1;HPM_P2
2021/06/13 00:01:27;;;;;;;16.30;3.50;;;;;;;;;;5096748;28;20044;-54
2021/06/13 00:03:54;;;;;;;10.48;3.13;;;;;;;;;;5098006;28;20048;-56
2021/06/13 00:06:20;;;;;;;11.43;3.65;;;;;;;;;;5062478;28;20060;-52
2021/06/13 00:08:46;;;;;;;9.43;3.25;;;;;;;;;;5084389;28;20036;-55
2021/06/13 00:11:12;;;;;;;11.35;3.60;;;;;;;;;;5079256;28;20063;-56
2021/06/13 00:13:42;;;;;;;16.13;3.63;;;;;;;;;;5065624;28;20117;-55
2021/06/13 00:16:10;;;;;;;11.45;3.25;;;;;;;;;;5081424;28;20032;-55
2021/06/13 00:18:36;;;;;;;7.85;3.10;;;;;;;;;;5064250;28;20060;-54
2021/06/13 00:21:03;;;;;;;11.40;3.35;;;;;;;;;;5079606;28;20036;-55
2021/06/13 00:23:29;;;;;;;15.13;3.67;;;;;;;;;;5077813;28;20055;-55
2021/06/13 00:25:55;;;;;;;8.70;3.47;;;;;;;;;;5065353;28;20063;-55
2021/06/13 00:28:21;;;;;;;12.32;3.03;;;;;;;;;;5096525;28;20033;-57
2021/06/13 00:30:47;;;;;;;12.48;3.60;;;;;;;;;;5067606;28;20041;-58
2021/06/13 00:33:15;;;;;;;16.65;3.63;;;;;;;;;;5063611;28;20044;-52
2021/06/13 00:35:41;;;;;;;11.05;3.13;;;;;;;;;;5064839;28;20052;-54
2021/06/13 00:38:07;;;;;;;10.18;2.95;;;;;;;;;;5096319;28;20048;-55
2021/06/13 00:40:33;;;;;;;13.30;4.05;;;;;;;;;;5062113;28;20033;-56
2021/06/13 00:43:00;;;;;;;14.32;3.25;;;;;;;;;;5059962;28;20044;-55
2021/06/13 00:45:27;;;;;;;12.48;3.70;;;;;;;;;;5062534;28;20029;-56
2021/06/13 00:47:53;;;;;;;12.75;3.50;;;;;;;;;;5057956;28;20064;-56
2021/06/13 00:50:24;;;;;;;17.73;3.42;;;;;;;;;;5062435;28;20040;-56
2021/06/13 00:52:50;;;;;;;11.40;3.58;;;;;;;;;;5050771;28;20033;-57
2021/06/13 00:55:16;;;;;;;10.27;3.80;;;;;;;;;;5079161;28;20111;-57
2021/06/13 00:57:44;;;;;;;15.82;3.72;;;;;;;;;;5059410;28;20040;-54
2021/06/13 01:00:11;;;;;;;12.25;3.85;;;;;;;;;;5040573;28;20099;-52
2021/06/13 01:02:36;;;;;;;16.17;4.05;;;;;;;;;;5058409;28;20030;-55
2021/06/13 01:05:03;;;;;;;18.17;4.53;;;;;;;;;;5072742;28;20043;-57
2021/06/13 01:07:37;;;;;;;14.05;4.30;;;;;;;;;;5060432;28;20036;-53
2021/06/13 01:10:06;;;;;;;13.82;4.32;;;;;;;;;;5074743;28;20040;-57
2021/06/13 01:12:35;;;;;;;15.60;4.15;;;;;;;;;;5077643;28;20037;-56
2021/06/13 01:15:04;;;;;;;16.77;4.75;;;;;;;;;;5074598;28;20059;-54
2021/06/13 01:17:31;;;;;;;11.05;3.72;;;;;;;;;;5061729;28;20028;-54
2021/06/13 01:20:02;;;;;;;11.90;3.95;;;;;;;;;;5058341;28;20171;-57
2021/06/13 01:22:44;;;;;;;14.40;3.97;;;;;;;;;;5076743;28;20044;-56
2021/06/13 01:25:16;;;;;;;13.45;4.07;;;;;;;;;;5075289;28;20041;-57
2021/06/13 01:28:02;;;;;;;18.58;3.95;;;;;;;;;;5063177;28;20040;-53
2021/06/13 01:30:31;;;;;;;13.23;4.20;;;;;;;;;;5056786;28;20036;-58
2021/06/13 01:33:00;;;;;;;16.48;4.40;;;;;;;;;;5063170;28;20069;-56
2021/06/13 01:35:26;;;;;;;16.60;4.38;;;;;;;;;;5058420;28;20071;-57
2021/06/13 01:37:53;;;;;;;10.52;3.90;;;;;;;;;;5061618;28;20040;-55
2021/06/13 01:40:21;;;;;;;13.68;4.72;;;;;;;;;;5075001;28;20067;-55
2021/06/13 01:42:48;;;;;;;17.15;3.92;;;;;;;;;;5081793;28;20044;-53
2021/06/13 01:45:15;;;;;;;17.65;4.25;;;;;;;;;;5095086;28;20051;-54
2021/06/13 01:47:43;;;;;;;10.57;3.47;;;;;;;;;;5098355;28;20044;-53
2021/06/13 01:50:10;;;;;;;14.23;4.10;;;;;;;;;;5106345;28;20113;-53
2021/06/13 01:52:38;;;;;;;16.70;3.50;;;;;;;;;;5098873;28;20040;-48
2021/06/13 01:55:05;;;;;;;11.35;3.70;;;;;;;;;;5094004;28;20051;-57
2021/06/13 01:57:31;;;;;;;12.15;4.35;;;;;;;;;;5082965;28;20055;-48
2021/06/13 01:59:58;;;;;;;14.02;3.67;;;;;;;;;;5083738;28;20105;-50
2021/06/13 02:02:25;;;;;;;11.23;4.05;;;;;;;;;;5062183;28;20100;-55
2021/06/13 02:04:53;;;;;;;18.35;3.92;;;;;;;;;;5084154;28;20046;-52
2021/06/13 02:07:24;;;;;;;13.57;3.60;;;;;;;;;;5077950;28;20087;-48
2021/06/13 02:09:50;;;;;;;11.63;3.72;;;;;;;;;;5073496;28;20132;-51
2021/06/13 02:12:16;;;;;;;10.75;3.85;;;;;;;;;;5060971;28;20042;-59
2021/06/13 02:14:44;;;;;;;16.25;4.40;;;;;;;;;;5064602;28;20024;-58
2021/06/13 02:17:11;;;;;;;13.30;4.47;;;;;;;;;;5072732;28;20040;-54
2021/06/13 02:19:37;;;;;;;13.55;3.67;;;;;;;;;;5084061;28;20035;-59
2021/06/13 02:22:05;;;;;;;11.27;3.78;;;;;;;;;;5071400;28;20048;-57
2021/06/13 02:24:32;;;;;;;15.40;4.25;;;;;;;;;;5082490;28;20048;-56
2021/06/13 02:26:59;;;;;;;15.15;4.20;;;;;;;;;;5094835;28;20048;-58
2021/06/13 02:29:25;;;;;;;11.48;3.80;;;;;;;;;;5067264;28;20044;-57
2021/06/13 02:31:52;;;;;;;13.40;3.45;;;;;;;;;;5061959;28;20056;-59
2021/06/13 02:34:20;;;;;;;13.23;3.60;;;;;;;;;;5067604;28;20206;-56
2021/06/13 02:36:47;;;;;;;12.55;3.85;;;;;;;;;;5064340;28;20062;-60
2021/06/13 02:39:14;;;;;;;10.35;3.78;;;;;;;;;;5066835;28;20048;-58
2021/06/13 02:41:40;;;;;;;9.98;3.78;;;;;;;;;;5065648;28;20110;-58
2021/06/13 02:44:06;;;;;;;13.73;3.88;;;;;;;;;;5080988;28;20041;-56
2021/06/13 02:46:35;;;;;;;11.13;3.90;;;;;;;;;;5084722;28;20044;-57
2021/06/13 02:49:01;;;;;;;17.25;4.70;;;;;;;;;;5081059;28;20151;-57
2021/06/13 02:51:31;;;;;;;16.48;4.20;;;;;;;;;;5085111;28;20037;-55
2021/06/13 02:53:58;;;;;;;11.77;3.88;;;;;;;;;;5063399;28;20055;-60
2021/06/13 02:56:29;;;;;;;13.43;4.25;;;;;;;;;;5065167;28;20048;-57
2021/06/13 02:58:57;;;;;;;14.95;4.72;;;;;;;;;;5093386;28;20036;-59
2021/06/13 03:03:54;;;;;;;11.13;4.55;;;;;;;;;;5072700;28;20040;-48
2021/06/13 03:06:21;;;;;;;10.02;3.85;;;;;;;;;;5060468;28;20068;-52
2021/06/13 03:08:48;;;;;;;11.80;3.85;;;;;;;;;;5042402;28;20065;-51
2021/06/13 03:11:15;;;;;;;13.05;3.95;;;;;;;;;;5048414;28;20095;-56
2021/06/13 03:13:42;;;;;;;15.35;3.92;;;;;;;;;;5046033;28;20044;-53
2021/06/13 03:16:13;;;;;;;11.00;3.90;;;;;;;;;;5045168;28;20044;-57
2021/06/13 03:18:40;;;;;;;9.35;3.97;;;;;;;;;;5065933;28;20037;-56
2021/06/13 03:21:07;;;;;;;12.70;4.28;;;;;;;;;;5059052;28;20098;-53
2021/06/13 03:23:33;;;;;;;13.60;4.10;;;;;;;;;;5069340;28;20036;-57
2021/06/13 03:26:02;;;;;;;18.75;4.15;;;;;;;;;;5061472;28;20052;-54
2021/06/13 03:28:28;;;;;;;;;;;;;;;;;;5069266;28;20056;-58
2021/06/13 03:30:56;;;;;;;11.63;3.70;;;;;;;;;;5074908;28;19957;-56
2021/06/13 03:33:22;;;;;;;10.15;3.72;;;;;;;;;;5046724;28;20053;-56
2021/06/13 03:35:49;;;;;;;17.35;4.22;;;;;;;;;;5047619;28;20052;-51
2021/06/13 03:38:16;;;;;;;14.18;4.10;;;;;;;;;;5062392;28;20527;-53
2021/06/13 03:40:43;;;;;;;16.05;4.57;;;;;;;;;;5067644;28;20151;-52
2021/06/13 03:43:10;;;;;;;10.00;3.53;;;;;;;;;;5061869;28;20052;-56
2021/06/13 03:45:36;;;;;;;14.63;4.25;;;;;;;;;;5065573;28;20056;-55
2021/06/13 03:48:06;;;;;;;10.80;4.28;;;;;;;;;;5055410;28;20037;-53
2021/06/13 03:50:33;;;;;;;11.25;3.88;;;;;;;;;;5046360;28;20051;-53
2021/06/13 03:53:02;;;;;;;12.60;3.95;;;;;;;;;;5044666;28;20055;-54
2021/06/13 03:55:28;;;;;;;15.93;4.82;;;;;;;;;;5046475;28;20059;-53
2021/06/13 03:57:56;;;;;;;12.73;4.50;;;;;;;;;;5068440;28;20125;-56
2021/06/13 04:00:23;;;;;;;11.40;4.17;;;;;;;;;;5057748;28;20053;-57
2021/06/13 04:02:50;;;;;;;13.55;4.60;;;;;;;;;;5063537;28;20040;-57
2021/06/13 04:05:19;;;;;;;13.93;4.45;;;;;;;;;;5050798;28;20060;-55
2021/06/13 04:07:46;;;;;;;12.75;4.25;;;;;;;;;;5046850;28;20036;-52
2021/06/13 04:10:15;;;;;;;11.20;4.10;;;;;;;;;;5049503;28;20063;-57
2021/06/13 04:12:42;;;;;;;14.02;3.95;;;;;;;;;;5068688;28;20032;-57
2021/06/13 04:15:09;;;;;;;11.90;3.90;;;;;;;;;;5064466;28;20050;-55
2021/06/13 04:17:39;;;;;;;14.77;4.40;;;;;;;;;;5063635;28;20059;-56
2021/06/13 04:20:06;;;;;;;12.25;4.60;;;;;;;;;;5066158;28;20040;-57
2021/06/13 04:22:34;;;;;;;13.32;4.07;;;;;;;;;;5064770;28;20047;-56
2021/06/13 04:25:01;;;;;;;17.38;4.60;;;;;;;;;;5068540;28;20036;-57
2021/06/13 04:27:30;;;;;;;17.08;4.78;;;;;;;;;;5062754;28;20029;-57
2021/06/13 04:29:59;;;;;;;16.52;4.25;;;;;;;;;;5068844;28;20024;-57
2021/06/13 04:32:26;;;;;;;13.30;4.70;;;;;;;;;;5068596;28;20052;-58
2021/06/13 04:34:53;;;;;;;18.75;4.72;;;;;;;;;;5059430;28;20036;-57
2021/06/13 04:37:20;;;;;;;17.25;5.18;;;;;;;;;;5081524;28;20021;-58
2021/06/13 04:39:48;;;;;;;19.52;4.75;;;;;;;;;;5067637;28;20037;-54
2021/06/13 04:42:15;;;;;;;12.97;4.57;;;;;;;;;;5064239;28;20116;-56
2021/06/13 04:44:41;;;;;;;12.30;4.78;;;;;;;;;;5065969;28;20048;-57
2021/06/13 04:47:15;;;;;;;16.98;4.47;;;;;;;;;;5064575;28;20040;-57
2021/06/13 04:49:42;;;;;;;13.25;4.25;;;;;;;;;;5066591;28;20032;-50
2021/06/13 04:52:13;;;;;;;14.65;4.35;;;;;;;;;;5064195;28;20037;-53
2021/06/13 04:54:44;;;;;;;13.07;4.63;;;;;;;;;;5066107;28;20076;-49
2021/06/13 04:57:30;;;;;;;13.88;4.75;;;;;;;;;;5062935;28;20136;-54
2021/06/13 04:59:57;;;;;;;12.15;4.32;;;;;;;;;;5065614;28;20048;-54
2021/06/13 05:02:24;;;;;;;16.67;4.82;;;;;;;;;;5064047;28;20052;-52
2021/06/13 05:04:50;;;;;;;14.68;4.60;;;;;;;;;;5085213;28;20028;-50
2021/06/13 05:07:23;;;;;;;17.15;4.22;;;;;;;;;;5067569;28;20095;-53
2021/06/13 05:09:49;;;;;;;17.55;4.57;;;;;;;;;;5051493;28;20033;-50
2021/06/13 05:12:16;;;;;;;13.35;4.45;;;;;;;;;;5062430;28;20033;-57
2021/06/13 05:14:44;;;;;;;17.38;5.20;;;;;;;;;;5061959;28;20043;-56
2021/06/13 05:17:12;;;;;;;15.57;4.83;;;;;;;;;;5084345;28;20032;-58
2021/06/13 05:19:39;;;;;;;11.80;4.53;;;;;;;;;;5064931;28;20044;-53
2021/06/13 05:22:06;;;;;;;13.27;4.28;;;;;;;;;;5085263;28;20036;-56
2021/06/13 05:24:33;;;;;;;18.63;4.82;;;;;;;;;;5063253;28;20036;-57
2021/06/13 05:27:00;;;;;;;19.52;5.10;;;;;;;;;;5065295;28;20028;-56
2021/06/13 05:29:26;;;;;;;12.65;4.32;;;;;;;;;;5062158;28;20037;-55
2021/06/13 05:31:54;;;;;;;20.00;5.07;;;;;;;;;;5066541;28;20036;-55
2021/06/13 05:34:21;;;;;;;18.10;4.83;;;;;;;;;;5062711;28;20044;-56
2021/06/13 05:36:58;;;;;;;15.40;4.63;;;;;;;;;;5065166;28;20093;-55
2021/06/13 05:39:25;;;;;;;19.53;4.93;;;;;;;;;;5084030;28;20044;-53
2021/06/13 05:41:51;;;;;;;19.20;4.72;;;;;;;;;;5087357;28;20077;-57
2021/06/13 05:44:18;;;;;;;14.05;4.57;;;;;;;;;;5078405;28;20043;-56
2021/06/13 05:46:45;;;;;;;18.13;5.15;;;;;;;;;;5065890;28;20048;-56
2021/06/13 05:49:13;;;;;;;16.30;5.00;;;;;;;;;;5064825;28;20118;-57
2021/06/13 05:51:40;;;;;;;13.93;4.90;;;;;;;;;;5062628;28;20041;-55
2021/06/13 05:54:06;;;;;;;18.38;4.95;;;;;;;;;;5047086;28;20029;-58
2021/06/13 05:56:34;;;;;;;13.35;4.75;;;;;;;;;;5062726;28;20040;-55
2021/06/13 05:59:00;;;;;;;21.77;5.85;;;;;;;;;;5066225;28;20036;-58
2021/06/13 06:01:27;;;;;;;17.63;4.25;;;;;;;;;;5063212;28;20044;-57
2021/06/13 06:03:53;;;;;;;16.98;5.38;;;;;;;;;;5053703;28;20055;-58
2021/06/13 06:06:25;;;;;;;16.23;5.28;;;;;;;;;;5047218;28;20049;-57
2021/06/13 06:08:51;;;;;;;14.23;4.70;;;;;;;;;;5048573;28;20033;-57
2021/06/13 06:11:17;;;;;;;16.52;4.63;;;;;;;;;;5044550;28;20041;-56
2021/06/13 06:13:44;;;;;;;19.88;5.10;;;;;;;;;;5050320;28;20032;-57
2021/06/13 06:16:19;;;;;;;14.98;5.07;;;;;;;;;;5063210;28;20032;-57
2021/06/13 06:18:45;;;;;;;19.02;4.65;;;;;;;;;;5049879;28;20084;-56
2021/06/13 06:21:12;;;;;;;13.82;4.90;;;;;;;;;;5045479;28;20040;-55
2021/06/13 06:23:39;;;;;;;20.40;6.00;;;;;;;;;;5050150;28;20041;-55
2021/06/13 06:26:07;;;;;;;17.15;4.93;;;;;;;;;;5045421;28;20047;-54
2021/06/13 06:28:34;;;;;;;18.33;5.18;;;;;;;;;;5047684;28;20067;-54
2021/06/13 06:31:00;;;;;;;16.58;4.65;;;;;;;;;;5045678;28;20097;-56
2021/06/13 06:33:30;;;;;;;13.32;4.47;;;;;;;;;;5048985;28;20033;-53
2021/06/13 06:35:56;;;;;;;17.40;4.85;;;;;;;;;;5047694;28;20037;-54
2021/06/13 06:38:23;;;;;;;19.48;4.82;;;;;;;;;;5048456;28;20041;-55
2021/06/13 06:40:51;;;;;;;11.35;4.40;;;;;;;;;;5047848;28;20043;-53
2021/06/13 06:43:17;;;;;;;14.83;4.67;;;;;;;;;;5045132;28;20037;-53
2021/06/13 06:45:53;;;;;;;16.73;5.13;;;;;;;;;;5048910;28;20273;-51
2021/06/13 06:48:20;;;;;;;14.90;4.80;;;;;;;;;;5043856;28;20041;-52
2021/06/13 06:50:47;;;;;;;13.05;4.82;;;;;;;;;;5048899;28;20048;-52
2021/06/13 06:53:14;;;;;;;17.48;5.47;;;;;;;;;;5045718;28;20049;-54
2021/06/13 06:55:42;;;;;;;12.23;4.57;;;;;;;;;;5049566;28;20033;-53
2021/06/13 06:58:11;;;;;;;10.90;3.85;;;;;;;;;;5044624;28;20040;-51
2021/06/13 07:00:37;;;;;;;11.73;3.20;;;;;;;;;;5048542;28;20118;-51
2021/06/13 07:03:10;;;;;;;12.13;3.63;;;;;;;;;;5063169;28;20073;-49
2021/06/13 07:05:38;;;;;;;12.80;3.22;;;;;;;;;;5046898;28;20096;-49
2021/06/13 07:08:05;;;;;;;14.03;3.87;;;;;;;;;;5044970;28;20032;-56
2021/06/13 07:10:31;;;;;;;19.50;4.05;;;;;;;;;;5048212;28;20095;-51
2021/06/13 07:12:58;;;;;;;13.65;4.38;;;;;;;;;;5044539;28;20037;-56
2021/06/13 07:15:26;;;;;;;10.98;3.38;;;;;;;;;;5048361;28;20044;-52
2021/06/13 07:17:53;;;;;;;11.82;3.55;;;;;;;;;;5045624;28;20045;-56
2021/06/13 07:20:20;;;;;;;14.85;3.83;;;;;;;;;;5049354;28;20044;-58
2021/06/13 07:22:47;;;;;;;16.25;3.75;;;;;;;;;;5046835;28;20041;-57
2021/06/13 07:25:14;;;;;;;14.65;4.00;;;;;;;;;;5046471;28;20048;-55
2021/06/13 07:27:42;;;;;;;14.52;4.05;;;;;;;;;;5046704;28;20048;-56
2021/06/13 07:30:11;;;;;;;14.00;3.57;;;;;;;;;;5044607;28;20039;-57
2021/06/13 07:32:39;;;;;;;11.23;3.47;;;;;;;;;;5048597;28;20350;-59
2021/06/13 07:35:06;;;;;;;11.65;3.83;;;;;;;;;;5048839;28;20044;-59
2021/06/13 07:37:32;;;;;;;12.93;3.72;;;;;;;;;;5052114;28;20037;-57
2021/06/13 07:39:59;;;;;;;15.13;3.75;;;;;;;;;;5054950;28;20036;-53
2021/06/13 07:42:26;;;;;;;9.23;3.05;;;;;;;;;;5068121;28;20052;-53
2021/06/13 07:44:52;;;;;;;9.75;3.03;;;;;;;;;;5050367;28;20047;-53
2021/06/13 07:47:21;;;;;;;12.68;2.95;;;;;;;;;;5047419;28;20044;-55
2021/06/13 07:49:49;;;;;;;14.50;2.97;;;;;;;;;;5042981;28;20080;-55
2021/06/13 07:52:15;;;;;;;26.05;7.93;;;;;;;;;;5046634;28;20098;-56
2021/06/13 07:54:42;;;;;;;15.95;5.22;;;;;;;;;;5043271;28;20040;-55
2021/06/13 07:57:11;;;;;;;10.75;2.72;;;;;;;;;;5035916;28;20045;-56
2021/06/13 07:59:39;;;;;;;9.90;2.70;;;;;;;;;;5031267;28;20040;-55
2021/06/13 08:02:05;;;;;;;10.05;2.50;;;;;;;;;;5040151;28;20094;-55
2021/06/13 08:04:36;;;;;;;11.95;2.50;;;;;;;;;;5025843;28;20041;-58
2021/06/13 08:07:11;;;;;;;10.23;2.10;;;;;;;;;;5036061;28;20077;-53
2021/06/13 08:09:37;;;;;;;11.80;3.00;;;;;;;;;;5033049;28;20037;-56
2021/06/13 08:12:04;;;;;;;11.05;2.67;;;;;;;;;;5039663;28;20045;-53
2021/06/13 08:14:31;;;;;;;9.02;2.50;;;;;;;;;;5039817;28;20033;-56
2021/06/13 08:17:06;;;;;;;10.80;2.70;;;;;;;;;;5029535;28;20093;-57
2021/06/13 08:19:33;;;;;;;10.07;3.45;;;;;;;;;;5026352;28;20041;-56
2021/06/13 08:21:59;;;;;;;10.70;3.47;;;;;;;;;;5054341;28;20044;-56
2021/06/13 08:24:28;;;;;;;12.55;3.33;;;;;;;;;;5063636;28;20075;-55
2021/06/13 08:26:56;;;;;;;;;;;;;;;;;;5055224;28;20091;-57
2021/06/13 08:29:23;;;;;;;14.95;2.90;;;;;;;;;;5026968;28;19999;-56
2021/06/13 08:31:49;;;;;;;10.00;2.55;;;;;;;;;;5036078;28;20037;-55
2021/06/13 08:34:16;;;;;;;9.75;3.13;;;;;;;;;;5048264;28;20037;-54
2021/06/13 08:36:45;;;;;;;10.43;2.60;;;;;;;;;;5044550;28;20029;-57
2021/06/13 08:39:13;;;;;;;15.50;3.28;;;;;;;;;;5064158;28;20049;-56
2021/06/13 08:41:41;;;;;;;11.32;3.22;;;;;;;;;;5059726;28;20080;-55
2021/06/13 08:44:07;;;;;;;11.32;3.13;;;;;;;;;;5064141;28;20033;-57
2021/06/13 08:46:34;;;;;;;13.63;3.40;;;;;;;;;;5054085;28;20032;-56
2021/06/13 08:49:00;;;;;;;14.77;3.72;;;;;;;;;;5045141;28;20029;-56
2021/06/13 08:51:27;;;;;;;15.70;2.85;;;;;;;;;;5045777;28;20048;-55
2021/06/13 08:53:54;;;;;;;12.00;3.05;;;;;;;;;;5043606;28;20037;-54
2021/06/13 08:56:21;;;;;;;9.98;2.50;;;;;;;;;;5029320;28;20048;-56
2021/06/13 08:58:50;;;;;;;9.93;2.67;;;;;;;;;;5055733;28;20044;-54
2021/06/13 09:01:16;;;;;;;10.82;3.38;;;;;;;;;;5046892;28;20033;-58
2021/06/13 09:03:43;;;;;;;14.05;4.20;;;;;;;;;;5055669;28;20044;-55
2021/06/13 09:06:11;;;;;;;9.38;2.95;;;;;;;;;;5044107;28;20056;-53
2021/06/13 09:08:38;;;;;;;10.63;3.20;;;;;;;;;;5042642;28;20087;-54
2021/06/13 09:11:05;;;;;;;9.10;2.75;;;;;;;;;;5052759;28;20278;-58
2021/06/13 09:13:34;;;;;;;8.35;2.80;;;;;;;;;;5045918;28;20042;-55
2021/06/13 09:16:03;;;;;;;11.63;3.25;;;;;;;;;;5047206;28;20044;-57
2021/06/13 09:18:37;;;;;;;8.05;2.85;;;;;;;;;;5042765;28;20113;-56
2021/06/13 09:21:05;;;;;;;10.40;3.20;;;;;;;;;;5047060;28;20044;-57
2021/06/13 09:23:34;;;;;;;11.40;2.20;;;;;;;;;;5043658;28;20051;-58
2021/06/13 09:26:06;;;;;;;8.20;2.42;;;;;;;;;;5045404;28;20106;-57
2021/06/13 09:28:34;;;;;;;8.68;2.60;;;;;;;;;;5042636;28;20121;-56
2021/06/13 09:31:02;;;;;;;10.48;2.40;;;;;;;;;;5046119;28;20032;-57
2021/06/13 09:33:29;;;;;;;8.98;2.70;;;;;;;;;;5061580;28;20049;-57
2021/06/13 09:36:05;;;;;;;8.43;2.63;;;;;;;;;;5046131;28;20055;-57
2021/06/13 09:38:32;;;;;;;8.95;2.70;;;;;;;;;;5045989;28;20051;-58
2021/06/13 09:41:00;;;;;;;10.63;2.90;;;;;;;;;;5050122;28;20021;-56
2021/06/13 09:43:28;;;;;;;11.32;3.58;;;;;;;;;;5064439;28;20037;-55
2021/06/13 09:46:07;;;;;;;8.30;2.60;;;;;;;;;;5039796;28;20044;-56
2021/06/13 09:48:34;;;;;;;7.65;2.50;;;;;;;;;;5049068;28;20033;-58
2021/06/13 09:51:02;;;;;;;8.95;2.40;;;;;;;;;;5043907;28;20122;-58
2021/06/13 09:53:31;;;;;;;14.20;2.63;;;;;;;;;;5049023;28;20159;-55
2021/06/13 09:56:17;;;;;;;6.65;2.30;;;;;;;;;;5045782;28;20033;-58
2021/06/13 09:59:07;;;;;;;22.33;6.15;;;;;;;;;;5047887;28;20094;-57
2021/06/13 10:01:38;;;;;;;14.48;6.57;;;;;;;;;;5024729;28;20076;-57
2021/06/13 10:04:05;;;;;;;8.32;3.28;;;;;;;;;;5037412;28;20045;-55
2021/06/13 10:06:33;;;;;;;9.35;2.80;;;;;;;;;;5046068;28;20051;-58
2021/06/13 10:08:59;;;;;;;12.45;2.80;;;;;;;;;;5048157;28;20037;-55
2021/06/13 10:11:26;;;;;;;11.18;2.63;;;;;;;;;;5045477;28;20053;-56
2021/06/13 10:13:54;;;;;;;13.13;2.63;;;;;;;;;;5049348;28;20080;-58
2021/06/13 10:16:26;;;;;;;9.35;2.33;;;;;;;;;;5043928;28;20060;-56
2021/06/13 10:18:55;;;;;;;8.95;2.33;;;;;;;;;;5048304;28;20044;-54
2021/06/13 10:21:22;;;;;;;9.18;2.58;;;;;;;;;;5045041;28;20044;-55
2021/06/13 10:23:50;;;;;;;7.70;2.78;;;;;;;;;;5048741;28;20053;-57
2021/06/13 10:26:19;;;;;;;12.82;2.60;;;;;;;;;;5043684;28;20110;-56
2021/06/13 10:28:45;;;;;;;9.27;2.65;;;;;;;;;;5048923;28;20032;-57
2021/06/13 10:31:12;;;;;;;5.60;2.50;;;;;;;;;;5062024;28;20089;-59
2021/06/13 10:33:40;;;;;;;9.20;2.67;;;;;;;;;;5066290;28;20045;-57
2021/06/13 10:36:09;;;;;;;;;;;;;;;;;;5063764;28;20072;-58
2021/06/13 10:38:38;;;;;;;8.27;2.20;;;;;;;;;;5047448;28;19920;-55
2021/06/13 10:41:05;;;;;;;7.20;2.15;;;;;;;;;;5063965;28;20073;-58
2021/06/13 10:43:32;;;;;;;7.43;2.40;;;;;;;;;;5047394;28;20047;-59
2021/06/13 10:46:10;;;;;;;10.63;2.72;;;;;;;;;;5070951;28;20041;-59
2021/06/13 10:48:39;;;;;;;15.00;2.88;;;;;;;;;;5050580;28;20044;-56
2021/06/13 10:51:24;;;;;;;9.40;2.83;;;;;;;;;;5066193;28;20069;-58
2021/06/13 10:53:52;;;;;;;8.98;2.25;;;;;;;;;;5033188;28;20037;-58
2021/06/13 10:56:23;;;;;;;7.72;2.45;;;;;;;;;;5049377;28;20106;-57
2021/06/13 10:58:52;;;;;;;11.50;2.63;;;;;;;;;;5044599;28;20149;-54
2021/06/13 11:01:25;;;;;;;9.73;3.22;;;;;;;;;;5048078;28;20045;-57
2021/06/13 11:03:59;;;;;;;7.45;2.28;;;;;;;;;;5061340;28;20044;-54
2021/06/13 11:06:51;;;;;;;7.32;2.45;;;;;;;;;;5049316;28;20044;-58
2021/06/13 11:09:19;;;;;;;7.75;2.63;;;;;;;;;;5030398;28;20033;-54
2021/06/13 11:11:50;;;;;;;9.77;2.20;;;;;;;;;;5028498;28;20034;-58
2021/06/13 11:14:24;;;;;;;7.15;2.08;;;;;;;;;;5042381;28;20045;-57
2021/06/13 11:16:53;;;;;;;9.77;2.53;;;;;;;;;;5048569;28;20029;-57
2021/06/13 11:19:30;;;;;;;10.35;2.80;;;;;;;;;;5044147;28;20051;-55
2021/06/13 11:22:15;;;;;;;8.18;2.65;;;;;;;;;;5038723;28;20051;-58
2021/06/13 11:24:47;;;;;;;9.82;2.50;;;;;;;;;;5045634;28;20037;-50
2021/06/13 11:27:16;;;;;;;8.18;2.28;;;;;;;;;;5048200;28;20029;-55
2021/06/13 11:29:52;;;;;;;7.75;2.50;;;;;;;;;;5041882;28;20053;-57
2021/06/13 11:32:39;;;;;;;11.63;2.55;;;;;;;;;;5068234;28;20042;-59
2021/06/13 11:35:22;;;;;;;11.35;2.47;;;;;;;;;;5044893;28;20044;-57
2021/06/13 11:37:49;;;;;;;8.15;2.50;;;;;;;;;;5047298;28;20048;-56
2021/06/13 11:40:30;;;;;;;6.93;2.97;;;;;;;;;;5044361;28;20120;-58
2021/06/13 11:43:09;;;;;;;6.28;2.28;;;;;;;;;;5046878;28;20061;-58
2021/06/13 11:45:37;;;;;;;10.18;2.70;;;;;;;;;;5044612;28;20036;-59
2021/06/13 11:48:20;;;;;;;8.98;2.38;;;;;;;;;;5046719;28;20044;-57
2021/06/13 11:50:59;;;;;;;8.48;2.03;;;;;;;;;;5044121;28;20109;-57
2021/06/13 11:53:41;;;;;;;7.57;2.10;;;;;;;;;;5047861;28;20033;-56
2021/06/13 11:56:12;;;;;;;8.77;2.33;;;;;;;;;;5041953;28;20053;-58
2021/06/13 11:58:39;;;;;;;7.97;2.55;;;;;;;;;;5047445;28;20044;-57
2021/06/13 12:01:05;;;;;;;9.65;2.53;;;;;;;;;;5042061;28;20040;-55
2021/06/13 12:03:32;;;;;;;9.10;2.90;;;;;;;;;;5044594;28;20119;-58
2021/06/13 12:06:06;;;;;;;10.75;2.53;;;;;;;;;;5040570;28;20041;-58
2021/06/13 12:08:39;;;;;;;51.45;4.03;;;;;;;;;;5055207;28;20092;-57
2021/06/13 12:11:05;;;;;;;13.38;2.58;;;;;;;;;;5032428;28;20125;-57
2021/06/13 12:13:34;;;;;;;32.63;3.17;;;;;;;;;;5046301;28;20036;-58
2021/06/13 12:16:14;;;;;;;43.67;3.80;;;;;;;;;;5059502;28;20037;-58
2021/06/13 12:18:41;;;;;;;13.82;2.60;;;;;;;;;;5046790;28;20033;-59
2021/06/13 12:21:07;;;;;;;8.05;2.25;;;;;;;;;;5044997;28;20126;-58
2021/06/13 12:23:36;;;;;;;6.20;2.33;;;;;;;;;;5072398;28;20049;-58
2021/06/13 12:29:00;;;;;;;8.57;2.60;;;;;;;;;;5046018;28;20059;-58
2021/06/13 12:31:28;;;;;;;8.88;2.53;;;;;;;;;;5034727;28;20329;-58
2021/06/13 12:33:54;;;;;;;;;;;;;;;;;;5046951;28;20047;-57
2021/06/13 12:36:21;;;;;;;7.68;2.40;;;;;;;;;;5060369;28;19927;-57
2021/06/13 12:38:49;;;;;;;9.43;2.00;;;;;;;;;;5046709;28;20037;-58
2021/06/13 12:41:20;;;;;;;10.80;2.20;;;;;;;;;;5041553;28;20053;-57
2021/06/13 12:43:49;;;;;;;5.60;1.92;;;;;;;;;;5046872;28;20048;-54
2021/06/13 12:46:17;;;;;;;8.63;1.90;;;;;;;;;;5042223;28;20063;-57
2021/06/13 12:48:44;;;;;;;8.15;2.72;;;;;;;;;;5045533;28;20024;-58
2021/06/13 12:51:11;;;;;;;7.43;2.15;;;;;;;;;;5063984;28;20043;-56
2021/06/13 12:53:43;;;;;;;4.82;1.90;;;;;;;;;;5041689;28;20033;-54
2021/06/13 12:56:10;;;;;;;6.22;1.90;;;;;;;;;;5046538;28;20041;-58
2021/06/13 12:58:40;;;;;;;4.95;2.00;;;;;;;;;;5058956;28;20048;-57
2021/06/13 13:01:07;;;;;;;5.88;1.90;;;;;;;;;;5046306;28;20036;-56
2021/06/13 13:03:42;;;;;;;5.97;1.95;;;;;;;;;;5037716;28;20039;-57
2021/06/13 13:06:10;;;;;;;6.55;1.90;;;;;;;;;;5044759;28;20045;-56
2021/06/13 13:08:43;;;;;;;7.32;1.92;;;;;;;;;;5040337;28;20040;-57
2021/06/13 13:11:10;;;;;;;6.25;2.13;;;;;;;;;;5025254;28;20121;-58
2021/06/13 13:13:39;;;;;;;8.05;2.28;;;;;;;;;;5040004;28;20024;-58
2021/06/13 13:16:20;;;;;;;9.05;2.40;;;;;;;;;;5061234;28;20045;-58
2021/06/13 13:18:48;;;;;;;5.50;2.22;;;;;;;;;;5058336;28;20102;-56
2021/06/13 13:21:15;;;;;;;6.47;2.00;;;;;;;;;;5063760;28;20061;-57
2021/06/13 13:23:42;;;;;;;11.70;2.33;;;;;;;;;;5042754;28;20045;-57
2021/06/13 13:26:11;;;;;;;10.20;2.33;;;;;;;;;;5081304;28;20069;-56
2021/06/13 13:28:38;;;;;;;8.98;2.00;;;;;;;;;;5055266;28;20044;-57
2021/06/13 13:31:15;;;;;;;8.27;2.00;;;;;;;;;;5036319;28;20051;-56
2021/06/13 13:33:42;;;;;;;7.13;2.30;;;;;;;;;;5041261;28;20036;-57
2021/06/13 13:36:13;;;;;;;6.50;2.20;;;;;;;;;;5045777;28;20037;-58
2021/06/13 13:38:40;;;;;;;9.65;2.42;;;;;;;;;;5041897;28;20047;-56
2021/06/13 13:41:08;;;;;;;7.28;2.17;;;;;;;;;;5046072;28;20028;-58
2021/06/13 13:43:36;;;;;;;6.70;2.10;;;;;;;;;;5059234;28;20044;-59
2021/06/13 13:46:05;;;;;;;8.13;2.05;;;;;;;;;;5034093;28;20041;-58
2021/06/13 13:48:32;;;;;;;6.35;1.88;;;;;;;;;;5046103;28;20032;-59
2021/06/13 13:51:00;;;;;;;6.03;1.90;;;;;;;;;;5059922;28;20041;-58
2021/06/13 13:53:29;;;;;;;5.60;1.90;;;;;;;;;;5046301;28;20035;-63
2021/06/13 13:56:00;;;;;;;10.90;2.42;;;;;;;;;;5041748;28;20035;-59
2021/06/13 13:58:27;;;;;;;9.18;2.30;;;;;;;;;;5046521;28;20025;-57
2021/06/13 14:00:54;;;;;;;9.93;1.83;;;;;;;;;;5042254;28;20051;-57
2021/06/13 14:03:22;;;;;;;5.83;1.97;;;;;;;;;;5052594;28;20111;-59
2021/06/13 14:05:50;;;;;;;7.93;2.25;;;;;;;;;;5045582;28;20278;-59
2021/06/13 14:08:16;;;;;;;;;;;;;;;;;;5046590;28;20033;-58
2021/06/13 14:10:45;;;;;;;5.22;1.65;;;;;;;;;;5041135;28;19920;-59
2021/06/13 14:13:12;;;;;;;6.10;1.90;;;;;;;;;;5045277;28;20029;-58
2021/06/13 14:15:39;;;;;;;9.15;1.95;;;;;;;;;;5042952;28;20025;-58
2021/06/13 14:18:06;;;;;;;8.23;2.03;;;;;;;;;;5046232;28;20053;-58
2021/06/13 14:20:33;;;;;;;5.53;2.22;;;;;;;;;;5041683;28;20029;-59
2021/06/13 14:22:59;;;;;;;7.53;2.63;;;;;;;;;;5045747;28;20044;-58
2021/06/13 14:25:27;;;;;;;4.72;1.60;;;;;;;;;;5021183;28;20036;-58
2021/06/13 14:27:55;;;;;;;6.43;1.88;;;;;;;;;;5046177;28;20032;-59
2021/06/13 14:30:22;;;;;;;4.38;1.83;;;;;;;;;;5045652;28;20047;-57
2021/06/13 14:32:48;;;;;;;8.60;2.10;;;;;;;;;;5048358;28;20121;-58
2021/06/13 14:35:15;;;;;;;10.57;1.98;;;;;;;;;;5049409;28;20033;-58
2021/06/13 14:37:44;;;;;;;5.45;2.05;;;;;;;;;;5043729;28;20025;-58
2021/06/13 14:40:12;;;;;;;6.68;2.40;;;;;;;;;;5049260;28;20040;-58
2021/06/13 14:42:38;;;;;;;7.93;1.60;;;;;;;;;;5044242;28;20037;-58
2021/06/13 14:45:16;;;;;;;4.22;1.85;;;;;;;;;;5049010;28;20101;-59
2021/06/13 14:47:43;;;;;;;4.13;1.53;;;;;;;;;;5062216;28;20150;-58
2021/06/13 14:50:10;;;;;;;5.63;1.60;;;;;;;;;;5049181;28;20313;-59